createdAt,value
2022-08-16T00:01:24.396Z,66.61
2022-08-16T00:03:53.760Z,66.83
2022-08-16T00:06:22.496Z,67.29
2022-08-16T00:08:50.151Z,66.80
2022-08-16T00:11:21.590Z,66.93
2022-08-16T00:13:53.587Z,67.00
2022-08-16T00:17:00.528Z,66.79
2022-08-16T00:19:22.607Z,66.32
2022-08-16T00:21:55.206Z,66.79
2022-08-16T00:24:32.706Z,66.59
2022-08-16T00:27:03.876Z,66.81
2022-08-16T00:29:32.812Z,66.81
2022-08-16T00:32:05.950Z,67.20
2022-08-16T00:34:43.687Z,67.28
2022-08-16T00:37:17.116Z,66.97
2022-08-16T00:39:56.938Z,67.10
2022-08-16T00:42:31.709Z,67.03
2022-08-16T00:45:25.157Z,67.29
2022-08-16T00:47:54.711Z,67.06
2022-08-16T00:50:36.561Z,66.89
2022-08-16T00:53:08.148Z,66.95
2022-08-16T00:55:41.940Z,67.11
2022-08-16T00:58:12.769Z,66.88
2022-08-16T01:00:54.368Z,66.91
2022-08-16T01:03:30.201Z,66.85
2022-08-16T01:05:58.220Z,67.09
2022-08-16T01:08:36.547Z,66.96
2022-08-16T01:11:06.560Z,67.02
2022-08-16T01:13:37.587Z,66.94
2022-08-16T01:16:35.474Z,67.17
2022-08-16T01:19:23.505Z,67.47
2022-08-16T01:22:58.861Z,67.47
2022-08-16T01:24:57.124Z,67.37
2022-08-16T01:27:35.870Z,67.59
2022-08-16T01:30:19.923Z,68.03
2022-08-16T01:33:01.872Z,68.17
2022-08-16T01:36:12.009Z,68.55
2022-08-16T01:38:47.020Z,68.87
2022-08-16T01:41:26.360Z,68.63
2022-08-16T01:44:01.433Z,68.70
2022-08-16T01:46:44.740Z,68.85
2022-08-16T01:49:43.035Z,68.99
2022-08-16T01:52:28.071Z,69.26
2022-08-16T01:55:35.635Z,69.28
2022-08-16T01:58:05.163Z,69.55
2022-08-16T02:00:34.176Z,69.96
2022-08-16T02:03:02.568Z,69.79
2022-08-16T02:05:30.575Z,69.89
2022-08-16T02:08:00.461Z,70.08
2022-08-16T02:10:28.914Z,70.03
2022-08-16T02:13:00.681Z,69.89
2022-08-16T02:15:35.618Z,70.12
2022-08-16T02:18:12.823Z,70.12
2022-08-16T02:20:46.483Z,70.41
2022-08-16T02:23:17.308Z,70.49
2022-08-16T02:25:52.154Z,70.47
2022-08-16T02:28:26.238Z,70.48
2022-08-16T02:30:58.316Z,70.73
2022-08-16T02:33:44.526Z,70.57
2022-08-16T02:36:48.087Z,70.76
2022-08-16T02:39:11.160Z,70.93
2022-08-16T02:41:42.159Z,71.23
2022-08-16T02:44:13.634Z,71.23
2022-08-16T02:46:50.650Z,71.21
2022-08-16T02:49:22.095Z,71.75
2022-08-16T02:51:59.330Z,71.71
2022-08-16T02:54:29.062Z,71.89
2022-08-16T02:56:56.509Z,72.01
2022-08-16T02:59:24.426Z,72.04
2022-08-16T03:01:51.789Z,71.83
2022-08-16T03:04:39.316Z,72.01
2022-08-16T03:07:14.885Z,72.15
2022-08-16T03:09:45.424Z,72.00
2022-08-16T03:12:16.601Z,72.10
2022-08-16T03:14:47.508Z,72.14
2022-08-16T03:17:17.056Z,72.47
2022-08-16T03:19:48.608Z,72.23
2022-08-16T03:22:28.677Z,72.27
2022-08-16T03:25:04.896Z,72.43
2022-08-16T03:27:41.027Z,72.45
2022-08-16T03:30:24.644Z,72.33
2022-08-16T03:32:56.964Z,72.36
2022-08-16T03:35:32.759Z,72.54
2022-08-16T03:38:34.666Z,72.52
2022-08-16T03:40:56.650Z,72.75
2022-08-16T03:43:51.932Z,72.70
2022-08-16T03:46:44.558Z,72.87
2022-08-16T03:49:05.393Z,72.89
2022-08-16T03:51:34.716Z,72.95
2022-08-16T03:54:12.163Z,73.14
2022-08-16T03:56:57.113Z,73.28
2022-08-16T03:59:29.378Z,73.28
2022-08-16T04:02:01.299Z,73.49
2022-08-16T04:04:33.550Z,73.52
2022-08-16T04:07:07.409Z,73.48
2022-08-16T04:09:38.645Z,73.65
2022-08-16T04:12:52.343Z,73.65
2022-08-16T04:15:02.457Z,73.81
2022-08-16T04:17:32.598Z,73.82
2022-08-16T04:20:24.060Z,73.89
2022-08-16T04:22:56.053Z,73.97
2022-08-16T04:25:24.805Z,74.01
2022-08-16T04:27:56.133Z,74.05
2022-08-16T04:30:30.239Z,74.02
2022-08-16T04:33:02.654Z,74.28
2022-08-16T04:35:35.868Z,74.26
2022-08-16T04:38:10.676Z,74.61
2022-08-16T04:40:50.230Z,74.20
2022-08-16T04:43:18.752Z,74.12
2022-08-16T04:45:47.417Z,73.99
2022-08-16T04:48:32.609Z,73.78
2022-08-16T04:51:07.845Z,73.63
2022-08-16T04:53:43.942Z,73.55
2022-08-16T04:56:11.883Z,73.49
2022-08-16T04:58:45.821Z,73.67
2022-08-16T05:01:15.522Z,73.55
2022-08-16T05:04:00.275Z,73.42
2022-08-16T05:06:42.317Z,73.25
2022-08-16T05:09:38.415Z,73.10
2022-08-16T05:12:06.850Z,72.91
2022-08-16T05:14:45.759Z,73.01
2022-08-16T05:17:18.029Z,72.86
2022-08-16T05:19:46.790Z,72.52
2022-08-16T05:22:28.404Z,72.39
2022-08-16T05:24:57.015Z,71.85
2022-08-16T05:27:24.513Z,71.42
2022-08-16T05:30:00.082Z,71.25
2022-08-16T05:32:36.488Z,70.20
2022-08-16T05:35:16.023Z,65.44
2022-08-16T05:37:58.666Z,60.65
2022-08-16T05:40:26.683Z,58.32
2022-08-16T05:42:55.509Z,55.30
2022-08-16T05:45:24.199Z,52.22
2022-08-16T05:47:59.589Z,50.88
2022-08-16T05:50:34.955Z,49.89
2022-08-16T05:53:03.748Z,52.10
2022-08-16T05:55:35.233Z,55.10
2022-08-16T05:58:08.277Z,57.08
2022-08-16T06:00:37.064Z,58.69
2022-08-16T06:03:04.210Z,60.66
2022-08-16T06:05:51.545Z,62.00
2022-08-16T06:08:31.545Z,62.60
2022-08-16T06:11:09.990Z,63.53
2022-08-16T06:13:41.967Z,64.24
2022-08-16T06:16:18.316Z,64.69
2022-08-16T06:18:47.785Z,65.44
2022-08-16T06:21:22.548Z,65.61
2022-08-16T06:23:54.283Z,65.93
2022-08-16T06:26:24.282Z,66.29
2022-08-16T06:29:05.317Z,66.53
2022-08-16T06:31:49.266Z,66.55
2022-08-16T06:34:55.580Z,66.57
2022-08-16T06:37:13.368Z,66.21
2022-08-16T06:39:49.845Z,66.41
2022-08-16T06:42:30.272Z,66.41
2022-08-16T06:45:29.879Z,66.66
2022-08-16T06:48:06.367Z,66.35
2022-08-16T06:50:35.357Z,66.19
2022-08-16T06:53:08.845Z,66.35
2022-08-16T06:55:47.100Z,65.94
2022-08-16T06:58:31.416Z,65.33
2022-08-16T07:01:09.865Z,64.85
2022-08-16T07:03:54.482Z,64.60
2022-08-16T07:06:26.497Z,63.86
2022-08-16T07:09:00.986Z,63.94
2022-08-16T07:11:47.341Z,63.56
2022-08-16T07:14:25.703Z,62.74
2022-08-16T07:16:58.329Z,62.60
2022-08-16T07:20:01.684Z,61.69
2022-08-16T07:22:38.047Z,61.09
2022-08-16T07:25:15.981Z,61.22
2022-08-16T07:27:44.287Z,60.79
2022-08-16T07:30:39.925Z,60.64
2022-08-16T07:33:07.401Z,60.83
2022-08-16T07:35:44.396Z,60.18
2022-08-16T07:38:19.719Z,59.83
2022-08-16T07:41:00.156Z,59.27
2022-08-16T07:43:29.745Z,58.78
2022-08-16T07:46:01.420Z,59.22
2022-08-16T07:48:30.913Z,59.05
2022-08-16T07:51:00.856Z,58.40
2022-08-16T07:53:34.765Z,58.40
2022-08-16T07:56:11.564Z,58.51
2022-08-16T07:58:40.488Z,58.49
2022-08-16T08:01:15.550Z,57.94
2022-08-16T08:03:58.296Z,58.41
2022-08-16T08:06:33.139Z,57.83
2022-08-16T08:09:07.024Z,57.44
2022-08-16T08:11:34.435Z,57.13
2022-08-16T08:14:06.634Z,56.60
2022-08-16T08:16:39.752Z,56.39
2022-08-16T08:19:17.823Z,55.97
2022-08-16T08:21:59.452Z,55.73
2022-08-16T08:24:48.667Z,54.60
2022-08-16T08:27:22.484Z,54.36
2022-08-16T08:30:49.431Z,54.88
2022-08-16T08:32:51.125Z,54.43
2022-08-16T08:35:27.061Z,54.32
2022-08-16T08:37:56.520Z,54.19
2022-08-16T08:40:29.714Z,53.78
2022-08-16T08:43:12.216Z,52.27
2022-08-16T08:45:52.817Z,52.32
2022-08-16T08:48:33.681Z,51.84
2022-08-16T08:51:09.211Z,52.40
2022-08-16T08:53:43.354Z,51.97
2022-08-16T08:56:22.984Z,51.73
2022-08-16T08:58:58.291Z,52.21
2022-08-16T09:01:43.007Z,51.61
2022-08-16T09:04:24.319Z,50.99
2022-08-16T09:06:53.584Z,50.84
2022-08-16T09:09:23.215Z,50.45
2022-08-16T09:12:04.123Z,50.29
2022-08-16T09:14:49.417Z,50.20
2022-08-16T09:17:47.198Z,50.17
2022-08-16T09:20:14.362Z,49.59
2022-08-16T09:22:44.180Z,49.19
2022-08-16T09:25:25.678Z,48.85
2022-08-16T09:27:58.096Z,48.59
2022-08-16T09:30:36.428Z,48.32
2022-08-16T09:33:18.341Z,47.86
2022-08-16T09:35:53.216Z,47.53
2022-08-16T09:38:32.026Z,47.71
2022-08-16T09:41:02.771Z,47.11
2022-08-16T09:43:59.569Z,47.32
2022-08-16T09:46:44.560Z,44.98
2022-08-16T09:49:05.827Z,46.13
2022-08-16T09:51:37.478Z,46.72
2022-08-16T09:54:09.625Z,45.59
2022-08-16T09:56:39.643Z,45.47
2022-08-16T09:59:25.230Z,45.54
2022-08-16T10:01:54.472Z,45.30
2022-08-16T10:04:29.812Z,44.48
2022-08-16T10:07:15.142Z,43.80
2022-08-16T10:09:55.873Z,42.99
2022-08-16T10:12:55.756Z,42.40
2022-08-16T10:15:25.313Z,42.96
2022-08-16T10:18:00.989Z,41.58
2022-08-16T10:20:35.232Z,41.53
2022-08-16T10:23:17.064Z,41.70
2022-08-16T10:27:19.576Z,40.33
2022-08-16T10:28:39.098Z,40.09
2022-08-16T10:31:14.457Z,39.39
2022-08-16T10:33:45.067Z,39.74
2022-08-16T10:36:39.263Z,39.91
2022-08-16T10:39:01.479Z,38.90
2022-08-16T10:41:29.119Z,39.22
2022-08-16T10:43:56.870Z,38.36
2022-08-16T10:46:40.097Z,37.96
2022-08-16T10:49:12.307Z,37.91
2022-08-16T10:52:01.809Z,37.71
2022-08-16T10:54:29.390Z,37.42
2022-08-16T10:57:01.017Z,37.44
2022-08-16T10:59:46.975Z,36.82
2022-08-16T11:02:57.793Z,35.65
2022-08-16T11:05:16.596Z,36.05
2022-08-16T11:07:52.658Z,36.53
2022-08-16T11:19:12.543Z,35.94
2022-08-16T11:24:41.945Z,34.83
2022-08-16T11:27:20.154Z,34.78
2022-08-16T11:29:52.176Z,33.85
2022-08-16T11:32:32.555Z,33.42
2022-08-16T11:35:10.808Z,33.87
2022-08-16T11:38:06.200Z,33.70
2022-08-16T11:40:52.281Z,34.46
2022-08-16T11:43:24.979Z,32.90
2022-08-16T11:45:57.121Z,32.32
2022-08-16T11:48:27.858Z,32.27
2022-08-16T11:50:56.315Z,32.83
2022-08-16T11:53:24.748Z,32.44
2022-08-16T11:55:55.496Z,32.29
2022-08-16T11:58:26.031Z,32.03
2022-08-16T12:00:57.456Z,32.86
2022-08-16T12:03:35.371Z,31.88
2022-08-16T12:06:30.651Z,32.28
2022-08-16T12:09:01.040Z,31.67
2022-08-16T12:11:31.932Z,31.59
2022-08-16T12:14:04.263Z,31.76
2022-08-16T12:16:36.974Z,31.85
2022-08-16T12:19:10.675Z,32.22
2022-08-16T12:21:58.876Z,32.44
2022-08-16T12:24:28.449Z,32.44
2022-08-16T12:26:57.549Z,32.35
2022-08-16T12:29:29.392Z,32.21
2022-08-16T12:32:01.706Z,32.22
2022-08-16T12:34:50.412Z,32.01
2022-08-16T12:37:21.782Z,32.71
2022-08-16T12:39:56.720Z,32.63
2022-08-16T12:42:35.456Z,31.16
2022-08-16T12:45:12.467Z,28.88
2022-08-16T12:48:29.702Z,29.55
2022-08-16T12:50:49.242Z,30.19
2022-08-16T12:53:20.569Z,29.39
2022-08-16T12:55:49.939Z,30.01
2022-08-16T12:58:48.317Z,30.81
2022-08-16T13:01:09.356Z,31.22
2022-08-16T13:03:40.488Z,31.31
2022-08-16T13:06:08.759Z,31.63
2022-08-16T13:08:36.494Z,31.47
2022-08-16T13:11:07.888Z,31.09
2022-08-16T13:13:36.139Z,31.07
2022-08-16T13:16:15.378Z,30.04
2022-08-16T13:18:52.573Z,29.82
2022-08-16T13:21:23.475Z,30.18
2022-08-16T13:23:55.189Z,30.50
2022-08-16T13:26:26.390Z,29.15
2022-08-16T13:28:54.403Z,29.00
2022-08-16T13:31:21.838Z,29.28
2022-08-16T13:33:51.840Z,29.48
2022-08-16T13:36:38.844Z,27.99
2022-08-16T13:39:09.875Z,27.87
2022-08-16T13:41:37.788Z,27.03
2022-08-16T13:44:09.401Z,27.04
2022-08-16T13:46:37.351Z,27.22
2022-08-16T13:49:05.956Z,27.80
2022-08-16T13:51:33.179Z,27.40
2022-08-16T13:54:04.537Z,28.04
2022-08-16T13:56:39.484Z,28.21
2022-08-16T13:59:19.919Z,26.98
2022-08-16T14:02:02.834Z,27.11
2022-08-16T14:04:34.188Z,28.55
2022-08-16T14:07:05.529Z,27.43
2022-08-16T14:09:36.809Z,27.69
2022-08-16T14:12:21.972Z,27.86
2022-08-16T14:14:54.515Z,27.56
2022-08-16T14:17:25.955Z,26.84
2022-08-16T14:19:54.028Z,27.44
2022-08-16T14:22:39.911Z,26.61
2022-08-16T14:25:19.017Z,26.03
2022-08-16T14:27:46.875Z,26.18
2022-08-16T14:30:19.184Z,25.71
2022-08-16T14:32:50.858Z,25.21
2022-08-16T14:35:36.822Z,25.36
2022-08-16T14:38:18.597Z,26.39
2022-08-16T14:40:52.750Z,26.90
2022-08-16T14:43:29.796Z,26.88
2022-08-16T14:45:58.127Z,27.08
2022-08-16T14:48:26.319Z,27.51
2022-08-16T14:50:55.569Z,27.50
2022-08-16T14:53:25.574Z,27.20
2022-08-16T14:55:54.622Z,26.79
2022-08-16T14:58:35.080Z,26.76
2022-08-16T15:01:10.077Z,27.41
2022-08-16T15:03:42.288Z,27.16
2022-08-16T15:06:13.213Z,27.14
2022-08-16T15:08:42.236Z,26.83
2022-08-16T15:11:09.415Z,26.38
2022-08-16T15:13:36.581Z,27.14
2022-08-16T15:16:04.905Z,26.74
2022-08-16T15:18:33.481Z,26.35
2022-08-16T15:21:04.713Z,25.78
2022-08-16T15:23:33.925Z,25.43
2022-08-16T15:26:03.915Z,25.06
2022-08-16T15:28:37.118Z,26.13
2022-08-16T15:31:10.522Z,29.46
2022-08-16T15:33:49.995Z,31.38
2022-08-16T15:36:21.041Z,32.23
2022-08-16T15:39:02.852Z,32.67
2022-08-16T15:41:43.129Z,33.28
2022-08-16T15:44:17.883Z,33.64
2022-08-16T15:46:57.069Z,33.69
2022-08-16T15:49:37.195Z,33.75
2022-08-16T15:52:11.167Z,34.21
2022-08-16T15:54:51.492Z,33.42
2022-08-16T15:57:27.168Z,33.80
2022-08-16T15:59:56.439Z,34.04
2022-08-16T16:02:39.486Z,33.71
2022-08-16T16:05:10.166Z,33.33
2022-08-16T16:07:40.810Z,33.80
2022-08-16T16:10:29.513Z,33.75
2022-08-16T16:13:03.727Z,33.39
2022-08-16T16:15:40.326Z,34.00
2022-08-16T16:18:09.947Z,34.60
2022-08-16T16:20:46.562Z,35.26
2022-08-16T16:23:19.428Z,35.57
2022-08-16T16:25:52.324Z,35.38
2022-08-16T16:29:06.099Z,35.58
2022-08-16T16:31:16.217Z,35.54
2022-08-16T16:33:50.458Z,35.73
2022-08-16T16:36:22.228Z,35.68
2022-08-16T16:38:52.791Z,35.67
2022-08-16T16:41:25.476Z,35.76
2022-08-16T16:43:55.997Z,35.61
2022-08-16T16:46:41.995Z,35.11
2022-08-16T16:49:13.887Z,35.07
2022-08-16T16:51:44.897Z,35.35
2022-08-16T16:54:28.005Z,35.15
2022-08-16T16:56:59.172Z,33.61
2022-08-16T16:59:28.034Z,33.66
2022-08-16T17:02:38.661Z,33.83
2022-08-16T17:04:47.206Z,33.62
2022-08-16T17:07:16.274Z,34.07
2022-08-16T17:09:46.821Z,33.97
2022-08-16T17:12:24.665Z,34.00
2022-08-16T17:14:55.961Z,34.38
2022-08-16T17:17:24.103Z,34.70
2022-08-16T17:19:51.619Z,35.09
2022-08-16T17:22:22.887Z,35.80
2022-08-16T17:24:53.228Z,35.77
2022-08-16T17:27:32.060Z,36.42
2022-08-16T17:30:15.046Z,36.70
2022-08-16T17:32:54.997Z,37.10
2022-08-16T17:35:37.743Z,37.30
2022-08-16T17:38:09.041Z,37.62
2022-08-16T17:40:50.330Z,37.73
2022-08-16T17:43:36.453Z,38.06
2022-08-16T17:46:06.676Z,37.99
2022-08-16T17:48:54.534Z,38.56
2022-08-16T17:51:27.545Z,38.75
2022-08-16T17:53:55.098Z,38.95
2022-08-16T17:56:22.356Z,39.09
2022-08-16T17:58:49.686Z,39.34
2022-08-16T18:01:27.321Z,39.77
2022-08-16T18:04:09.212Z,39.99
2022-08-16T18:06:39.491Z,40.36
2022-08-16T18:09:08.719Z,40.76
2022-08-16T18:11:42.927Z,41.27
2022-08-16T18:14:13.129Z,41.59
2022-08-16T18:16:41.273Z,42.52
2022-08-16T18:19:10.524Z,43.11
2022-08-16T18:21:56.655Z,43.51
2022-08-16T18:24:24.760Z,44.39
2022-08-16T18:26:52.974Z,44.38
2022-08-16T18:29:21.204Z,44.32
2022-08-16T18:31:50.783Z,44.52
2022-08-16T18:34:20.602Z,44.81
2022-08-16T18:36:48.436Z,44.84
2022-08-16T18:39:16.220Z,45.56
2022-08-16T18:41:46.976Z,46.41
2022-08-16T18:44:26.510Z,46.19
2022-08-16T18:46:55.869Z,46.42
2022-08-16T18:49:23.291Z,46.76
2022-08-16T18:51:50.979Z,46.54
2022-08-16T18:54:18.660Z,47.02
2022-08-16T18:56:56.184Z,46.77
2022-08-16T18:59:30.814Z,46.87
2022-08-16T19:02:04.037Z,47.38
2022-08-16T19:04:55.706Z,47.76
2022-08-16T19:07:31.013Z,47.97
2022-08-16T19:10:03.956Z,48.61
2022-08-16T19:12:38.417Z,48.71
2022-08-16T19:15:20.117Z,48.97
2022-08-16T19:17:47.799Z,49.27
2022-08-16T19:20:19.383Z,49.75
2022-08-16T19:23:05.935Z,49.72
2022-08-16T19:25:46.274Z,49.46
2022-08-16T19:28:58.512Z,49.76
2022-08-16T19:31:22.101Z,49.88
2022-08-16T19:33:55.327Z,50.17
2022-08-16T19:36:36.869Z,50.82
2022-08-16T19:39:12.232Z,50.71
2022-08-16T19:41:53.888Z,50.90
2022-08-16T19:44:22.833Z,50.51
2022-08-16T19:46:50.682Z,50.88
2022-08-16T19:49:17.849Z,51.00
2022-08-16T19:51:47.037Z,51.05
2022-08-16T19:54:15.157Z,51.18
2022-08-16T19:56:42.296Z,51.11
2022-08-16T19:59:19.283Z,51.67
2022-08-16T20:01:49.206Z,51.56
2022-08-16T20:04:16.268Z,51.92
2022-08-16T20:06:43.546Z,53.80
2022-08-16T20:09:15.195Z,54.55
2022-08-16T20:11:48.335Z,54.93
2022-08-16T20:14:24.100Z,54.24
2022-08-16T20:16:59.486Z,53.44
2022-08-16T20:19:33.431Z,53.38
2022-08-16T20:22:52.349Z,52.91
2022-08-16T20:25:28.196Z,53.24
2022-08-16T20:27:56.966Z,53.13
2022-08-16T20:30:25.714Z,53.16
2022-08-16T20:32:54.483Z,53.12
2022-08-16T20:35:25.825Z,53.43
2022-08-16T20:37:54.716Z,53.99
2022-08-16T20:40:28.823Z,53.47
2022-08-16T20:43:09.568Z,54.19
2022-08-16T20:45:38.389Z,53.97
2022-08-16T20:48:07.135Z,54.41
2022-08-16T20:50:35.829Z,55.02
2022-08-16T20:53:04.455Z,55.06
2022-08-16T20:55:35.596Z,55.04
2022-08-16T20:58:03.045Z,55.27
2022-08-16T21:00:30.991Z,55.23
2022-08-16T21:02:58.283Z,55.66
2022-08-16T21:05:31.351Z,56.02
2022-08-16T21:07:59.607Z,55.83
2022-08-16T21:10:27.212Z,56.05
2022-08-16T21:12:58.398Z,56.58
2022-08-16T21:15:28.019Z,56.94
2022-08-16T21:17:55.527Z,56.97
2022-08-16T21:20:26.076Z,57.31
2022-08-16T21:22:56.585Z,57.43
2022-08-16T21:25:24.963Z,58.30
2022-08-16T21:28:39.013Z,58.09
2022-08-16T21:30:40.412Z,58.67
2022-08-16T21:33:14.848Z,58.70
2022-08-16T21:35:46.863Z,59.07
2022-08-16T21:38:30.179Z,59.08
2022-08-16T21:40:59.603Z,59.79
2022-08-16T21:43:31.833Z,60.13
2022-08-16T21:46:01.783Z,60.18
2022-08-16T21:48:35.227Z,60.76
2022-08-16T21:51:12.171Z,61.04
2022-08-16T21:53:39.956Z,61.30
2022-08-16T21:56:12.659Z,61.25
2022-08-16T21:58:52.675Z,61.53
2022-08-16T22:01:23.085Z,61.55
2022-08-16T22:04:36.088Z,61.42
2022-08-16T22:06:41.035Z,61.56
2022-08-16T22:09:10.631Z,61.69
2022-08-16T22:11:38.394Z,61.95
2022-08-16T22:14:05.589Z,62.44
2022-08-16T22:16:37.425Z,62.63
2022-08-16T22:19:06.157Z,62.81
2022-08-16T22:21:35.274Z,63.17
2022-08-16T22:24:05.711Z,63.04
2022-08-16T22:26:42.830Z,63.23
2022-08-16T22:29:13.946Z,63.62
2022-08-16T22:31:43.857Z,63.67
2022-08-16T22:34:12.972Z,64.02
2022-08-16T22:36:40.484Z,63.93
2022-08-16T22:39:11.712Z,64.14
2022-08-16T22:41:42.169Z,64.54
2022-08-16T22:44:09.822Z,64.56
2022-08-16T22:46:37.656Z,64.77
2022-08-16T22:49:07.047Z,64.87
2022-08-16T22:51:35.757Z,65.05
2022-08-16T22:54:33.951Z,65.04
2022-08-16T22:56:50.509Z,65.34
2022-08-16T23:01:44.521Z,65.65
2022-08-16T23:04:11.626Z,65.37
2022-08-16T23:06:38.742Z,65.74
2022-08-16T23:09:05.878Z,66.09
2022-08-16T23:11:33.038Z,65.92
2022-08-16T23:14:00.297Z,65.88
2022-08-16T23:16:34.755Z,65.91
2022-08-16T23:19:10.949Z,66.21
2022-08-16T23:21:46.498Z,66.63
2022-08-16T23:24:14.124Z,66.79
2022-08-16T23:27:00.500Z,66.56
2022-08-16T23:29:45.832Z,66.70
2022-08-16T23:32:31.069Z,66.77
2022-08-16T23:35:22.229Z,67.16
2022-08-16T23:38:08.599Z,67.02
2022-08-16T23:41:14.042Z,67.25
2022-08-16T23:43:43.916Z,67.44
2022-08-16T23:46:17.082Z,67.68
2022-08-16T23:50:01.599Z,67.43
2022-08-16T23:51:34.133Z,67.98
2022-08-16T23:54:01.242Z,67.77
2022-08-16T23:56:35.464Z,67.79
2022-08-16T23:59:07.985Z,67.86
